PWSweather.com
Personal Weather Stations
Station Observations
IRONTON
Ironton, Charlevoix, MI 49720

IrontonCharlevoix, MI 49720

Lat: 45.26, Lon: -85.22

Elevation: 750

Station Type:

Latest ConditionsUpdated 2:30:01 PM EST Friday, Feb 22, 2019
Currently Today's Max Today's Min Today's Average
Temperature 33.5°F0.8°C 34.7°F1.5°C 23.8°F-4.6°C 27.9°F-2.3°C
Dew Point 22.2°F-5.4°C 26.1°F-3.3°C 21.0°F-6.1°C 23.2°F-4.9°C
Winds 8.0 mph WSW12.9 kmh WSW 10.0 mph -16.1 kmh - - 2.1 mph 3.4 kmh
Wind Gusts 13.0 mph20.9 kmh 16.0 mph25.7 kmh - -
Humidity 63% 89% 62% 83%
Pressure 30.40 in1029.5 mb 30.45 in1031.2 mb 30.27 in1025.1 mb -
Precipitation - 0.01 in0.3 mm - -
Hour Temp Dew Point Humidity Winds Wind Gusts Pressure Precip Precip Rate Daily Precip Total
02:30 PM 33.5°F0.8°C 22.2°F-5.4°C 63% 8.0 mph WSW12.9 kmh WSW 13.0 mph20.9 kmh 30.40 in1029.5 mb 0.00 in0.0 mm 0.00 in0.0 mm 0.01 in0.3 mm
02:25 PM 33.5°F0.8°C 22.6°F-5.2°C 64% 10.0 mph WSW16.1 kmh WSW 16.0 mph25.7 kmh 30.40 in1029.5 mb 0.00 in0.0 mm 0.00 in0.0 mm 0.01 in0.3 mm
02:20 PM 33.5°F0.8°C 22.6°F-5.2°C 64% 8.0 mph WSW12.9 kmh WSW 16.0 mph25.7 kmh 30.40 in1029.5 mb 0.00 in0.0 mm 0.00 in0.0 mm 0.01 in0.3 mm
02:15 PM 34.0°F1.1°C 22.3°F-5.4°C 62% 5.0 mph WSW8.0 kmh WSW 12.0 mph19.3 kmh 30.40 in1029.5 mb 0.00 in0.0 mm 0.00 in0.0 mm 0.01 in0.3 mm
02:10 PM 34.1°F1.2°C 23.9°F-4.5°C 66% 5.0 mph WSW8.0 kmh WSW 9.0 mph14.5 kmh 30.40 in1029.5 mb 0.00 in0.0 mm 0.00 in0.0 mm 0.01 in0.3 mm
02:05 PM 34.0°F1.1°C 23.5°F-4.7°C 65% 5.0 mph WSW8.0 kmh WSW 9.0 mph14.5 kmh 30.41 in1029.8 mb 0.00 in0.0 mm 0.00 in0.0 mm 0.01 in0.3 mm
02:00 PM 33.9°F1.1°C 23.7°F-4.6°C 66% 5.0 mph WSW8.0 kmh WSW 9.0 mph14.5 kmh 30.41 in1029.8 mb 0.00 in0.0 mm 0.00 in0.0 mm 0.01 in0.3 mm
01:55 PM 33.8°F1.0°C 23.6°F-4.7°C 66% 5.0 mph WSW8.0 kmh WSW 11.0 mph17.7 kmh 30.41 in1029.8 mb 0.00 in0.0 mm 0.00 in0.0 mm 0.01 in0.3 mm
01:50 PM 33.6°F0.9°C 23.8°F-4.6°C 67% 7.0 mph WSW11.3 kmh WSW 12.0 mph19.3 kmh 30.40 in1029.5 mb 0.00 in0.0 mm 0.00 in0.0 mm 0.01 in0.3 mm
01:45 PM 33.7°F0.9°C 23.2°F-4.9°C 65% 6.0 mph WSW9.7 kmh WSW 12.0 mph19.3 kmh 30.40 in1029.5 mb 0.00 in0.0 mm 0.00 in0.0 mm 0.01 in0.3 mm
01:40 PM 34.1°F1.2°C 23.9°F-4.5°C 66% 5.0 mph SW8.0 kmh SW 11.0 mph17.7 kmh 30.40 in1029.5 mb 0.00 in0.0 mm 0.00 in0.0 mm 0.01 in0.3 mm
01:35 PM 34.2°F1.2°C 24.0°F-4.4°C 66% 6.0 mph WSW9.7 kmh WSW 11.0 mph17.7 kmh 30.41 in1029.8 mb 0.00 in0.0 mm 0.00 in0.0 mm 0.01 in0.3 mm
01:30 PM 33.9°F1.1°C 24.1°F-4.4°C 67% 5.0 mph WSW8.0 kmh WSW 10.0 mph16.1 kmh 30.41 in1029.8 mb 0.00 in0.0 mm 0.00 in0.0 mm 0.01 in0.3 mm
01:25 PM 33.7°F0.9°C 23.9°F-4.5°C 67% 5.0 mph WSW8.0 kmh WSW 10.0 mph16.1 kmh 30.41 in1029.8 mb 0.00 in0.0 mm 0.00 in0.0 mm 0.01 in0.3 mm
01:20 PM 33.4°F0.8°C 24.0°F-4.4°C 68% 6.0 mph WSW9.7 kmh WSW 11.0 mph17.7 kmh 30.41 in1029.8 mb 0.00 in0.0 mm 0.00 in0.0 mm 0.01 in0.3 mm
01:15 PM 33.2°F0.7°C 23.4°F-4.8°C 67% 6.0 mph WSW9.7 kmh WSW 11.0 mph17.7 kmh 30.41 in1029.8 mb 0.00 in0.0 mm 0.00 in0.0 mm 0.01 in0.3 mm
01:10 PM 32.8°F0.4°C 23.0°F-5.0°C 67% 6.0 mph WSW9.7 kmh WSW 11.0 mph17.7 kmh 30.41 in1029.8 mb 0.00 in0.0 mm 0.00 in0.0 mm 0.01 in0.3 mm
01:05 PM 32.6°F0.3°C 22.8°F-5.1°C 67% 6.0 mph W9.7 kmh W 10.0 mph16.1 kmh 30.41 in1029.8 mb 0.00 in0.0 mm 0.00 in0.0 mm 0.01 in0.3 mm
01:00 PM 32.8°F0.4°C 23.0°F-5.0°C 67% 6.0 mph WSW9.7 kmh WSW 9.0 mph14.5 kmh 30.41 in1029.8 mb 0.00 in0.0 mm 0.00 in0.0 mm 0.01 in0.3 mm
12:55 PM 33.2°F0.7°C 23.4°F-4.8°C 67% 5.0 mph WSW8.0 kmh WSW 8.0 mph12.9 kmh 30.41 in1029.8 mb 0.00 in0.0 mm 0.00 in0.0 mm 0.01 in0.3 mm
12:50 PM 33.9°F1.1°C 23.7°F-4.6°C 66% 4.0 mph WSW6.4 kmh WSW 8.0 mph12.9 kmh 30.41 in1029.8 mb 0.00 in0.0 mm 0.00 in0.0 mm 0.01 in0.3 mm
12:45 PM 34.3°F1.3°C 25.5°F-3.6°C 70% 3.0 mph SW4.8 kmh SW 8.0 mph12.9 kmh 30.41 in1029.8 mb 0.00 in0.0 mm 0.00 in0.0 mm 0.01 in0.3 mm
12:40 PM 34.1°F1.2°C 25.3°F-3.7°C 70% 3.0 mph SW4.8 kmh SW 9.0 mph14.5 kmh 30.41 in1029.8 mb 0.00 in0.0 mm 0.00 in0.0 mm 0.01 in0.3 mm
12:35 PM 34.3°F1.3°C 25.2°F-3.8°C 69% 3.0 mph SW4.8 kmh SW 9.0 mph14.5 kmh 30.42 in1030.1 mb 0.00 in0.0 mm 0.00 in0.0 mm 0.01 in0.3 mm
12:30 PM 34.7°F1.5°C 25.6°F-3.6°C 69% 3.0 mph SW4.8 kmh SW 9.0 mph14.5 kmh 30.41 in1029.8 mb 0.00 in0.0 mm 0.00 in0.0 mm 0.01 in0.3 mm
12:25 PM 34.7°F1.5°C 25.2°F-3.8°C 68% 4.0 mph SW6.4 kmh SW 9.0 mph14.5 kmh 30.41 in1029.8 mb 0.00 in0.0 mm 0.00 in0.0 mm 0.01 in0.3 mm
12:20 PM 34.7°F1.5°C 25.9°F-3.4°C 70% 4.0 mph SSW6.4 kmh SSW 9.0 mph14.5 kmh 30.41 in1029.8 mb 0.00 in0.0 mm 0.00 in0.0 mm 0.01 in0.3 mm
12:15 PM 34.5°F1.4°C 25.7°F-3.5°C 70% 4.0 mph S6.4 kmh S 9.0 mph14.5 kmh 30.42 in1030.1 mb 0.00 in0.0 mm 0.00 in0.0 mm 0.01 in0.3 mm
12:10 PM 34.2°F1.2°C 26.1°F-3.3°C 72% 3.0 mph SSE4.8 kmh SSE 9.0 mph14.5 kmh 30.42 in1030.1 mb 0.00 in0.0 mm 0.00 in0.0 mm 0.01 in0.3 mm
12:05 PM 33.5°F0.8°C 26.1°F-3.3°C 74% 3.0 mph SE4.8 kmh SE 7.0 mph11.3 kmh 30.42 in1030.1 mb 0.00 in0.0 mm 0.00 in0.0 mm 0.01 in0.3 mm
12:00 PM 32.7°F0.4°C 25.3°F-3.7°C 74% 4.0 mph SE6.4 kmh SE 7.0 mph11.3 kmh 30.42 in1030.1 mb 0.00 in0.0 mm 0.00 in0.0 mm 0.01 in0.3 mm
11:55 AM 32.1°F0.1°C 24.7°F-4.1°C 74% 4.0 mph ESE6.4 kmh ESE 8.0 mph12.9 kmh 30.42 in1030.1 mb 0.00 in0.0 mm 0.00 in0.0 mm 0.01 in0.3 mm
11:50 AM 32.2°F0.1°C 24.8°F-4.0°C 74% 4.0 mph SE6.4 kmh SE 9.0 mph14.5 kmh 30.42 in1030.1 mb 0.00 in0.0 mm 0.00 in0.0 mm 0.01 in0.3 mm
11:45 AM 32.1°F0.1°C 24.4°F-4.2°C 73% 4.0 mph SE6.4 kmh SE 9.0 mph14.5 kmh 30.42 in1030.1 mb 0.00 in0.0 mm 0.00 in0.0 mm 0.01 in0.3 mm
11:40 AM 32.2°F0.1°C 24.8°F-4.0°C 74% 3.0 mph SE4.8 kmh SE 8.0 mph12.9 kmh 30.42 in1030.1 mb 0.00 in0.0 mm 0.00 in0.0 mm 0.01 in0.3 mm
11:35 AM 31.9°F-0.1°C 24.9°F-3.9°C 75% 3.0 mph SE4.8 kmh SE 8.0 mph12.9 kmh 30.42 in1030.1 mb 0.00 in0.0 mm 0.00 in0.0 mm 0.01 in0.3 mm
11:30 AM 31.3°F-0.4°C 24.3°F-4.3°C 75% 4.0 mph ESE6.4 kmh ESE 8.0 mph12.9 kmh 30.42 in1030.1 mb 0.00 in0.0 mm 0.00 in0.0 mm 0.01 in0.3 mm
11:25 AM 31.0°F-0.6°C 24.0°F-4.4°C 75% 4.0 mph ESE6.4 kmh ESE 8.0 mph12.9 kmh 30.42 in1030.1 mb 0.00 in0.0 mm 0.00 in0.0 mm 0.01 in0.3 mm
11:20 AM 30.7°F-0.7°C 23.7°F-4.6°C 75% 5.0 mph ESE8.0 kmh ESE 8.0 mph12.9 kmh 30.43 in1030.5 mb 0.00 in0.0 mm 0.00 in0.0 mm 0.01 in0.3 mm
11:15 AM 30.6°F-0.8°C 23.6°F-4.7°C 75% 6.0 mph SE9.7 kmh SE 9.0 mph14.5 kmh 30.42 in1030.1 mb 0.00 in0.0 mm 0.00 in0.0 mm 0.01 in0.3 mm
11:10 AM 30.5°F-0.8°C 23.8°F-4.6°C 76% 6.0 mph ESE9.7 kmh ESE 9.0 mph14.5 kmh 30.42 in1030.1 mb 0.00 in0.0 mm 0.00 in0.0 mm 0.01 in0.3 mm
11:05 AM 30.4°F-0.9°C 23.7°F-4.6°C 76% 5.0 mph ESE8.0 kmh ESE 9.0 mph14.5 kmh 30.43 in1030.5 mb 0.00 in0.0 mm 0.00 in0.0 mm 0.01 in0.3 mm
11:00 AM 30.5°F-0.8°C 23.8°F-4.6°C 76% 4.0 mph ESE6.4 kmh ESE 7.0 mph11.3 kmh 30.43 in1030.5 mb 0.00 in0.0 mm 0.00 in0.0 mm 0.01 in0.3 mm
10:55 AM 30.5°F-0.8°C 23.5°F-4.7°C 75% 4.0 mph SE6.4 kmh SE 8.0 mph12.9 kmh 30.43 in1030.5 mb 0.00 in0.0 mm 0.00 in0.0 mm 0.01 in0.3 mm
10:50 AM 30.6°F-0.8°C 23.6°F-4.7°C 75% 4.0 mph SE6.4 kmh SE 8.0 mph12.9 kmh 30.44 in1030.8 mb 0.01 in0.3 mm 0.00 in0.0 mm 0.01 in0.3 mm
10:45 AM 30.8°F-0.7°C 23.8°F-4.6°C 75% 4.0 mph SE6.4 kmh SE 7.0 mph11.3 kmh 30.44 in1030.8 mb 0.01 in0.3 mm 0.00 in0.0 mm 0.01 in0.3 mm
10:40 AM 30.8°F-0.7°C 24.1°F-4.4°C 76% 4.0 mph SE6.4 kmh SE 7.0 mph11.3 kmh 30.44 in1030.8 mb 0.01 in0.3 mm 0.00 in0.0 mm 0.01 in0.3 mm
10:35 AM 30.9°F-0.6°C 24.2°F-4.3°C 76% 3.0 mph SE4.8 kmh SE 6.0 mph9.7 kmh 30.45 in1031.2 mb 0.01 in0.3 mm 0.00 in0.0 mm 0.01 in0.3 mm
10:30 AM 30.8°F-0.7°C 25.1°F-3.8°C 79% 2.0 mph SSE3.2 kmh SSE 5.0 mph8.0 kmh 30.45 in1031.2 mb 0.01 in0.3 mm 0.00 in0.0 mm 0.01 in0.3 mm
10:25 AM 30.2°F-1.0°C 24.8°F-4.0°C 80% 2.0 mph SE3.2 kmh SE 5.0 mph8.0 kmh 30.45 in1031.2 mb 0.01 in0.3 mm 0.00 in0.0 mm 0.01 in0.3 mm
10:20 AM 29.7°F-1.3°C 24.6°F-4.1°C 81% 1.0 mph SE1.6 kmh SE 4.0 mph6.4 kmh 30.45 in1031.2 mb 0.01 in0.3 mm 0.00 in0.0 mm 0.01 in0.3 mm
10:15 AM 29.3°F-1.5°C 24.5°F-4.2°C 82% 3.0 mph SE4.8 kmh SE 5.0 mph8.0 kmh 30.44 in1030.8 mb 0.01 in0.3 mm 0.00 in0.0 mm 0.01 in0.3 mm
10:10 AM 29.1°F-1.6°C 24.3°F-4.3°C 82% 4.0 mph SE6.4 kmh SE 7.0 mph11.3 kmh 30.44 in1030.8 mb 0.01 in0.3 mm 0.00 in0.0 mm 0.01 in0.3 mm
10:05 AM 29.0°F-1.7°C 24.5°F-4.2°C 83% 3.0 mph SE4.8 kmh SE 7.0 mph11.3 kmh 30.43 in1030.5 mb 0.01 in0.3 mm 0.00 in0.0 mm 0.01 in0.3 mm
10:00 AM 28.8°F-1.8°C 24.6°F-4.1°C 84% 3.0 mph SSE4.8 kmh SSE 5.0 mph8.0 kmh 30.43 in1030.5 mb 0.01 in0.3 mm 0.00 in0.0 mm 0.01 in0.3 mm
09:55 AM 28.5°F-1.9°C 24.3°F-4.3°C 84% 2.0 mph S3.2 kmh S 5.0 mph8.0 kmh 30.43 in1030.5 mb 0.01 in0.3 mm 0.12 in3.0 mm 0.01 in0.3 mm
09:50 AM 28.2°F-2.1°C 24.3°F-4.3°C 85% 3.0 mph SSW4.8 kmh SSW 5.0 mph8.0 kmh 30.44 in1030.8 mb 0.00 in0.0 mm 0.00 in0.0 mm 0.00 in0.0 mm
09:45 AM 28.0°F-2.2°C 24.1°F-4.4°C 85% 3.0 mph SSW4.8 kmh SSW 5.0 mph8.0 kmh 30.43 in1030.5 mb 0.00 in0.0 mm 0.00 in0.0 mm 0.00 in0.0 mm
09:40 AM 27.8°F-2.3°C 24.2°F-4.3°C 86% 3.0 mph SSW4.8 kmh SSW 5.0 mph8.0 kmh 30.43 in1030.5 mb 0.00 in0.0 mm 0.00 in0.0 mm 0.00 in0.0 mm
09:35 AM 27.6°F-2.4°C 24.0°F-4.4°C 86% 2.0 mph SSW3.2 kmh SSW 4.0 mph6.4 kmh 30.43 in1030.5 mb 0.00 in0.0 mm 0.00 in0.0 mm 0.00 in0.0 mm
09:30 AM 27.2°F-2.7°C 23.8°F-4.6°C 87% 1.0 mph SSW1.6 kmh SSW 3.0 mph4.8 kmh 30.43 in1030.5 mb 0.00 in0.0 mm 0.00 in0.0 mm 0.00 in0.0 mm
09:25 AM 26.9°F-2.8°C 23.5°F-4.7°C 87% 1.0 mph SSW1.6 kmh SSW 2.0 mph3.2 kmh 30.43 in1030.5 mb 0.00 in0.0 mm 0.00 in0.0 mm 0.00 in0.0 mm
09:20 AM 26.4°F-3.1°C 23.1°F-4.9°C 87% 1.0 mph SSW1.6 kmh SSW 3.0 mph4.8 kmh 30.42 in1030.1 mb 0.00 in0.0 mm 0.00 in0.0 mm 0.00 in0.0 mm
09:15 AM 26.1°F-3.3°C 22.8°F-5.1°C 87% 2.0 mph SSW3.2 kmh SSW 4.0 mph6.4 kmh 30.43 in1030.5 mb 0.00 in0.0 mm 0.00 in0.0 mm 0.00 in0.0 mm
09:10 AM 25.9°F-3.4°C 22.8°F-5.1°C 88% 3.0 mph SSW4.8 kmh SSW 4.0 mph6.4 kmh 30.43 in1030.5 mb 0.00 in0.0 mm 0.00 in0.0 mm 0.00 in0.0 mm
09:05 AM 25.7°F-3.5°C 22.6°F-5.2°C 88% 3.0 mph SSW4.8 kmh SSW 4.0 mph6.4 kmh 30.43 in1030.5 mb 0.00 in0.0 mm 0.00 in0.0 mm 0.00 in0.0 mm
09:00 AM 25.5°F-3.6°C 22.4°F-5.3°C 88% 3.0 mph SSW4.8 kmh SSW 4.0 mph6.4 kmh 30.42 in1030.1 mb 0.00 in0.0 mm 0.00 in0.0 mm 0.00 in0.0 mm
08:55 AM 25.3°F-3.7°C 22.2°F-5.4°C 88% 3.0 mph SSW4.8 kmh SSW 4.0 mph6.4 kmh 30.43 in1030.5 mb 0.00 in0.0 mm 0.00 in0.0 mm 0.00 in0.0 mm
08:50 AM 25.1°F-3.8°C 22.3°F-5.4°C 89% 3.0 mph SSW4.8 kmh SSW 4.0 mph6.4 kmh 30.43 in1030.5 mb 0.00 in0.0 mm 0.00 in0.0 mm 0.00 in0.0 mm
08:45 AM 24.9°F-3.9°C 21.8°F-5.7°C 88% 3.0 mph SSW4.8 kmh SSW 5.0 mph8.0 kmh 30.43 in1030.5 mb 0.00 in0.0 mm 0.00 in0.0 mm 0.00 in0.0 mm
08:40 AM 24.7°F-4.1°C 21.9°F-5.6°C 89% 3.0 mph SSW4.8 kmh SSW 6.0 mph9.7 kmh 30.43 in1030.5 mb 0.00 in0.0 mm 0.00 in0.0 mm 0.00 in0.0 mm
08:35 AM 24.5°F-4.2°C 21.7°F-5.7°C 89% 4.0 mph S6.4 kmh S 6.0 mph9.7 kmh 30.42 in1030.1 mb 0.00 in0.0 mm 0.00 in0.0 mm 0.00 in0.0 mm
08:30 AM 24.3°F-4.3°C 21.5°F-5.8°C 89% 3.0 mph S4.8 kmh S 5.0 mph8.0 kmh 30.42 in1030.1 mb 0.00 in0.0 mm 0.00 in0.0 mm 0.00 in0.0 mm
08:25 AM 24.2°F-4.3°C 21.4°F-5.9°C 89% 2.0 mph SSE3.2 kmh SSE 5.0 mph8.0 kmh 30.42 in1030.1 mb 0.00 in0.0 mm 0.00 in0.0 mm 0.00 in0.0 mm
08:20 AM 24.0°F-4.4°C 21.2°F-6.0°C 89% 2.0 mph SSE3.2 kmh SSE 5.0 mph8.0 kmh 30.42 in1030.1 mb 0.00 in0.0 mm 0.00 in0.0 mm 0.00 in0.0 mm
08:15 AM 23.8°F-4.6°C 21.0°F-6.1°C 89% 2.0 mph SSE3.2 kmh SSE 5.0 mph8.0 kmh 30.42 in1030.1 mb 0.00 in0.0 mm 0.00 in0.0 mm 0.00 in0.0 mm
08:10 AM 23.9°F-4.5°C 21.1°F-6.1°C 89% 1.0 mph SSE1.6 kmh SSE 5.0 mph8.0 kmh 30.42 in1030.1 mb 0.00 in0.0 mm 0.00 in0.0 mm 0.00 in0.0 mm
08:05 AM 24.0°F-4.4°C 21.2°F-6.0°C 89% 1.0 mph SSE1.6 kmh SSE 3.0 mph4.8 kmh 30.41 in1029.8 mb 0.00 in0.0 mm 0.00 in0.0 mm 0.00 in0.0 mm
08:00 AM 24.1°F-4.4°C 21.1°F-6.1°C 88% 1.0 mph SSE1.6 kmh SSE 4.0 mph6.4 kmh 30.41 in1029.8 mb 0.00 in0.0 mm 0.00 in0.0 mm 0.00 in0.0 mm
07:55 AM 24.3°F-4.3°C 21.3°F-5.9°C 88% 3.0 mph SE4.8 kmh SE 4.0 mph6.4 kmh 30.41 in1029.8 mb 0.00 in0.0 mm 0.00 in0.0 mm 0.00 in0.0 mm
07:50 AM 24.4°F-4.2°C 21.6°F-5.8°C 89% 3.0 mph SSE4.8 kmh SSE 5.0 mph8.0 kmh 30.41 in1029.8 mb 0.00 in0.0 mm 0.00 in0.0 mm 0.00 in0.0 mm
07:45 AM 24.6°F-4.1°C 21.6°F-5.8°C 88% 2.0 mph S3.2 kmh S 5.0 mph8.0 kmh 30.40 in1029.5 mb 0.00 in0.0 mm 0.00 in0.0 mm 0.00 in0.0 mm
07:40 AM 24.8°F-4.0°C 21.8°F-5.7°C 88% 1.0 mph S1.6 kmh S 3.0 mph4.8 kmh 30.40 in1029.5 mb 0.00 in0.0 mm 0.00 in0.0 mm 0.00 in0.0 mm
07:35 AM 25.0°F-3.9°C 21.9°F-5.6°C 88% 1.0 mph S1.6 kmh S 3.0 mph4.8 kmh 30.40 in1029.5 mb 0.00 in0.0 mm 0.00 in0.0 mm 0.00 in0.0 mm
07:30 AM 25.1°F-3.8°C 22.0°F-5.6°C 88% 2.0 mph SSW3.2 kmh SSW 3.0 mph4.8 kmh 30.40 in1029.5 mb 0.00 in0.0 mm 0.00 in0.0 mm 0.00 in0.0 mm
07:25 AM 25.2°F-3.8°C 22.1°F-5.5°C 88% 2.0 mph SW3.2 kmh SW 3.0 mph4.8 kmh 30.40 in1029.5 mb 0.00 in0.0 mm 0.00 in0.0 mm 0.00 in0.0 mm
07:20 AM 25.3°F-3.7°C 22.2°F-5.4°C 88% 2.0 mph SW3.2 kmh SW 3.0 mph4.8 kmh 30.40 in1029.5 mb 0.00 in0.0 mm 0.00 in0.0 mm 0.00 in0.0 mm
07:15 AM 25.5°F-3.6°C 22.4°F-5.3°C 88% 1.0 mph SW1.6 kmh SW 3.0 mph4.8 kmh 30.41 in1029.8 mb 0.00 in0.0 mm 0.00 in0.0 mm 0.00 in0.0 mm
07:10 AM 25.6°F-3.6°C 22.5°F-5.3°C 88% Calm Calm 2.0 mph3.2 kmh 30.41 in1029.8 mb 0.00 in0.0 mm 0.00 in0.0 mm 0.00 in0.0 mm
07:05 AM 25.6°F-3.6°C 22.5°F-5.3°C 88% Calm Calm 2.0 mph3.2 kmh 30.40 in1029.5 mb 0.00 in0.0 mm 0.00 in0.0 mm 0.00 in0.0 mm
07:00 AM 25.6°F-3.6°C 22.5°F-5.3°C 88% Calm Calm 1.0 mph1.6 kmh 30.40 in1029.5 mb 0.00 in0.0 mm 0.00 in0.0 mm 0.00 in0.0 mm
06:55 AM 25.5°F-3.6°C 22.4°F-5.3°C 88% Calm Calm 1.0 mph1.6 kmh 30.40 in1029.5 mb 0.00 in0.0 mm 0.00 in0.0 mm 0.00 in0.0 mm
06:50 AM 25.4°F-3.7°C 22.3°F-5.4°C 88% Calm Calm -- 30.40 in1029.5 mb 0.00 in0.0 mm 0.00 in0.0 mm 0.00 in0.0 mm
06:45 AM 25.4°F-3.7°C 22.3°F-5.4°C 88% Calm Calm -- 30.40 in1029.5 mb 0.00 in0.0 mm 0.00 in0.0 mm 0.00 in0.0 mm
06:40 AM 25.4°F-3.7°C 22.3°F-5.4°C 88% Calm Calm 2.0 mph3.2 kmh 30.40 in1029.5 mb 0.00 in0.0 mm 0.00 in0.0 mm 0.00 in0.0 mm
06:35 AM 25.4°F-3.7°C 22.3°F-5.4°C 88% 1.0 mph SW1.6 kmh SW 2.0 mph3.2 kmh 30.40 in1029.5 mb 0.00 in0.0 mm 0.00 in0.0 mm 0.00 in0.0 mm
06:30 AM 25.4°F-3.7°C 22.3°F-5.4°C 88% Calm Calm 2.0 mph3.2 kmh 30.40 in1029.5 mb 0.00 in0.0 mm 0.00 in0.0 mm 0.00 in0.0 mm
06:25 AM 25.4°F-3.7°C 22.3°F-5.4°C 88% 1.0 mph SW1.6 kmh SW 2.0 mph3.2 kmh 30.40 in1029.5 mb 0.00 in0.0 mm 0.00 in0.0 mm 0.00 in0.0 mm
06:20 AM 25.5°F-3.6°C 22.4°F-5.3°C 88% 1.0 mph SW1.6 kmh SW 3.0 mph4.8 kmh 30.40 in1029.5 mb 0.00 in0.0 mm 0.00 in0.0 mm 0.00 in0.0 mm
06:15 AM 25.7°F-3.5°C 22.6°F-5.2°C 88% Calm Calm 3.0 mph4.8 kmh 30.39 in1029.1 mb 0.00 in0.0 mm 0.00 in0.0 mm 0.00 in0.0 mm
06:10 AM 25.8°F-3.4°C 22.7°F-5.2°C 88% 1.0 mph SW1.6 kmh SW 4.0 mph6.4 kmh 30.39 in1029.1 mb 0.00 in0.0 mm 0.00 in0.0 mm 0.00 in0.0 mm
06:05 AM 25.9°F-3.4°C 22.8°F-5.1°C 88% 2.0 mph SW3.2 kmh SW 4.0 mph6.4 kmh 30.39 in1029.1 mb 0.00 in0.0 mm 0.00 in0.0 mm 0.00 in0.0 mm
06:00 AM 26.0°F-3.3°C 22.7°F-5.2°C 87% 2.0 mph WSW3.2 kmh WSW 4.0 mph6.4 kmh 30.39 in1029.1 mb 0.00 in0.0 mm 0.00 in0.0 mm 0.00 in0.0 mm
05:55 AM 26.1°F-3.3°C 22.8°F-5.1°C 87% 1.0 mph WSW1.6 kmh WSW 4.0 mph6.4 kmh 30.39 in1029.1 mb 0.00 in0.0 mm 0.00 in0.0 mm 0.00 in0.0 mm
05:50 AM 26.1°F-3.3°C 22.8°F-5.1°C 87% Calm Calm 3.0 mph4.8 kmh 30.39 in1029.1 mb 0.00 in0.0 mm 0.00 in0.0 mm 0.00 in0.0 mm
05:45 AM 26.1°F-3.3°C 22.8°F-5.1°C 87% Calm Calm 3.0 mph4.8 kmh 30.38 in1028.8 mb 0.00 in0.0 mm 0.00 in0.0 mm 0.00 in0.0 mm
05:40 AM 26.2°F-3.2°C 22.9°F-5.1°C 87% Calm Calm 2.0 mph3.2 kmh 30.39 in1029.1 mb 0.00 in0.0 mm 0.00 in0.0 mm 0.00 in0.0 mm
05:35 AM 26.3°F-3.2°C 23.0°F-5.0°C 87% Calm Calm 2.0 mph3.2 kmh 30.38 in1028.8 mb 0.00 in0.0 mm 0.00 in0.0 mm 0.00 in0.0 mm
05:30 AM 26.3°F-3.2°C 23.0°F-5.0°C 87% Calm Calm -- 30.38 in1028.8 mb 0.00 in0.0 mm 0.00 in0.0 mm 0.00 in0.0 mm
05:25 AM 26.4°F-3.1°C 23.1°F-4.9°C 87% Calm Calm -- 30.38 in1028.8 mb 0.00 in0.0 mm 0.00 in0.0 mm 0.00 in0.0 mm
05:20 AM 26.5°F-3.1°C 23.2°F-4.9°C 87% Calm Calm -- 30.38 in1028.8 mb 0.00 in0.0 mm 0.00 in0.0 mm 0.00 in0.0 mm
05:15 AM 26.6°F-3.0°C 23.3°F-4.8°C 87% Calm Calm -- 30.37 in1028.4 mb 0.00 in0.0 mm 0.00 in0.0 mm 0.00 in0.0 mm
05:10 AM 26.7°F-2.9°C 23.4°F-4.8°C 87% Calm Calm -- 30.37 in1028.4 mb 0.00 in0.0 mm 0.00 in0.0 mm 0.00 in0.0 mm
05:05 AM 26.7°F-2.9°C 23.4°F-4.8°C 87% Calm Calm -- 30.37 in1028.4 mb 0.00 in0.0 mm 0.00 in0.0 mm 0.00 in0.0 mm
05:00 AM 26.7°F-2.9°C 23.4°F-4.8°C 87% Calm Calm -- 30.36 in1028.1 mb 0.00 in0.0 mm 0.00 in0.0 mm 0.00 in0.0 mm
04:55 AM 26.7°F-2.9°C 23.4°F-4.8°C 87% Calm Calm -- 30.36 in1028.1 mb 0.00 in0.0 mm 0.00 in0.0 mm 0.00 in0.0 mm
04:50 AM 26.7°F-2.9°C 23.4°F-4.8°C 87% Calm Calm -- 30.36 in1028.1 mb 0.00 in0.0 mm 0.00 in0.0 mm 0.00 in0.0 mm
04:45 AM 26.7°F-2.9°C 23.4°F-4.8°C 87% Calm Calm -- 30.36 in1028.1 mb 0.00 in0.0 mm 0.00 in0.0 mm 0.00 in0.0 mm
04:40 AM 26.6°F-3.0°C 23.3°F-4.8°C 87% Calm Calm 1.0 mph1.6 kmh 30.36 in1028.1 mb 0.00 in0.0 mm 0.00 in0.0 mm 0.00 in0.0 mm
04:35 AM 26.5°F-3.1°C 23.4°F-4.8°C 88% Calm Calm 1.0 mph1.6 kmh 30.36 in1028.1 mb 0.00 in0.0 mm 0.00 in0.0 mm 0.00 in0.0 mm
04:30 AM 26.3°F-3.2°C 23.2°F-4.9°C 88% Calm Calm 1.0 mph1.6 kmh 30.36 in1028.1 mb 0.00 in0.0 mm 0.00 in0.0 mm 0.00 in0.0 mm
04:25 AM 26.2°F-3.2°C 23.1°F-4.9°C 88% Calm Calm 1.0 mph1.6 kmh 30.35 in1027.8 mb 0.00 in0.0 mm 0.00 in0.0 mm 0.00 in0.0 mm
04:20 AM 26.2°F-3.2°C 23.1°F-4.9°C 88% Calm Calm 2.0 mph3.2 kmh 30.35 in1027.8 mb 0.00 in0.0 mm 0.00 in0.0 mm 0.00 in0.0 mm
04:15 AM 26.2°F-3.2°C 23.1°F-4.9°C 88% 1.0 mph W1.6 kmh W 2.0 mph3.2 kmh 30.35 in1027.8 mb 0.00 in0.0 mm 0.00 in0.0 mm 0.00 in0.0 mm
04:10 AM 26.3°F-3.2°C 23.2°F-4.9°C 88% 1.0 mph W1.6 kmh W 3.0 mph4.8 kmh 30.35 in1027.8 mb 0.00 in0.0 mm 0.00 in0.0 mm 0.00 in0.0 mm
04:05 AM 26.3°F-3.2°C 23.2°F-4.9°C 88% 1.0 mph W1.6 kmh W 3.0 mph4.8 kmh 30.35 in1027.8 mb 0.00 in0.0 mm 0.00 in0.0 mm 0.00 in0.0 mm
04:00 AM 26.2°F-3.2°C 23.1°F-4.9°C 88% Calm Calm 2.0 mph3.2 kmh 30.35 in1027.8 mb 0.00 in0.0 mm 0.00 in0.0 mm 0.00 in0.0 mm
03:55 AM 26.0°F-3.3°C 23.2°F-4.9°C 89% Calm Calm 4.0 mph6.4 kmh 30.35 in1027.8 mb 0.00 in0.0 mm 0.00 in0.0 mm 0.00 in0.0 mm
03:50 AM 25.8°F-3.4°C 23.0°F-5.0°C 89% Calm Calm 4.0 mph6.4 kmh 30.35 in1027.8 mb 0.00 in0.0 mm 0.00 in0.0 mm 0.00 in0.0 mm
03:45 AM 25.8°F-3.4°C 23.0°F-5.0°C 89% Calm Calm 2.0 mph3.2 kmh 30.34 in1027.4 mb 0.00 in0.0 mm 0.00 in0.0 mm 0.00 in0.0 mm
03:40 AM 25.8°F-3.4°C 23.0°F-5.0°C 89% 1.0 mph SW1.6 kmh SW 3.0 mph4.8 kmh 30.34 in1027.4 mb 0.00 in0.0 mm 0.00 in0.0 mm 0.00 in0.0 mm
03:35 AM 25.7°F-3.5°C 22.9°F-5.1°C 89% 1.0 mph SW1.6 kmh SW 3.0 mph4.8 kmh 30.34 in1027.4 mb 0.00 in0.0 mm 0.00 in0.0 mm 0.00 in0.0 mm
03:30 AM 25.7°F-3.5°C 22.9°F-5.1°C 89% 1.0 mph SW1.6 kmh SW 3.0 mph4.8 kmh 30.34 in1027.4 mb 0.00 in0.0 mm 0.00 in0.0 mm 0.00 in0.0 mm
03:25 AM 25.7°F-3.5°C 22.9°F-5.1°C 89% 2.0 mph SW3.2 kmh SW 3.0 mph4.8 kmh 30.34 in1027.4 mb 0.00 in0.0 mm 0.00 in0.0 mm 0.00 in0.0 mm
03:20 AM 25.6°F-3.6°C 22.8°F-5.1°C 89% 2.0 mph SW3.2 kmh SW 3.0 mph4.8 kmh 30.34 in1027.4 mb 0.00 in0.0 mm 0.00 in0.0 mm 0.00 in0.0 mm
03:15 AM 25.6°F-3.6°C 22.8°F-5.1°C 89% 1.0 mph SW1.6 kmh SW 3.0 mph4.8 kmh 30.34 in1027.4 mb 0.00 in0.0 mm 0.00 in0.0 mm 0.00 in0.0 mm
03:10 AM 25.7°F-3.5°C 22.9°F-5.1°C 89% 1.0 mph SW1.6 kmh SW 4.0 mph6.4 kmh 30.34 in1027.4 mb 0.00 in0.0 mm 0.00 in0.0 mm 0.00 in0.0 mm
03:05 AM 25.8°F-3.4°C 23.0°F-5.0°C 89% 2.0 mph S3.2 kmh S 4.0 mph6.4 kmh 30.33 in1027.1 mb 0.00 in0.0 mm 0.00 in0.0 mm 0.00 in0.0 mm
03:00 AM 25.9°F-3.4°C 23.1°F-4.9°C 89% 1.0 mph E1.6 kmh E 4.0 mph6.4 kmh 30.33 in1027.1 mb 0.00 in0.0 mm 0.00 in0.0 mm 0.00 in0.0 mm
02:55 AM 25.9°F-3.4°C 23.1°F-4.9°C 89% 1.0 mph ENE1.6 kmh ENE 3.0 mph4.8 kmh 30.33 in1027.1 mb 0.00 in0.0 mm 0.00 in0.0 mm 0.00 in0.0 mm
02:50 AM 25.8°F-3.4°C 23.0°F-5.0°C 89% 2.0 mph ENE3.2 kmh ENE 3.0 mph4.8 kmh 30.33 in1027.1 mb 0.00 in0.0 mm 0.00 in0.0 mm 0.00 in0.0 mm
02:45 AM 25.8°F-3.4°C 23.0°F-5.0°C 89% 2.0 mph ENE3.2 kmh ENE 3.0 mph4.8 kmh 30.32 in1026.8 mb 0.00 in0.0 mm 0.00 in0.0 mm 0.00 in0.0 mm
02:40 AM 25.8°F-3.4°C 23.0°F-5.0°C 89% 2.0 mph ENE3.2 kmh ENE 3.0 mph4.8 kmh 30.32 in1026.8 mb 0.00 in0.0 mm 0.00 in0.0 mm 0.00 in0.0 mm
02:35 AM 25.8°F-3.4°C 23.0°F-5.0°C 89% 1.0 mph ENE1.6 kmh ENE 3.0 mph4.8 kmh 30.32 in1026.8 mb 0.00 in0.0 mm 0.00 in0.0 mm 0.00 in0.0 mm
02:30 AM 25.7°F-3.5°C 22.9°F-5.1°C 89% 1.0 mph ENE1.6 kmh ENE 3.0 mph4.8 kmh 30.32 in1026.8 mb 0.00 in0.0 mm 0.00 in0.0 mm 0.00 in0.0 mm
02:25 AM 25.7°F-3.5°C 22.9°F-5.1°C 89% 1.0 mph ENE1.6 kmh ENE 3.0 mph4.8 kmh 30.31 in1026.4 mb 0.00 in0.0 mm 0.00 in0.0 mm 0.00 in0.0 mm
02:20 AM 25.8°F-3.4°C 22.7°F-5.2°C 88% 1.0 mph ENE1.6 kmh ENE 3.0 mph4.8 kmh 30.31 in1026.4 mb 0.00 in0.0 mm 0.00 in0.0 mm 0.00 in0.0 mm
02:15 AM 25.8°F-3.4°C 22.7°F-5.2°C 88% Calm Calm 1.0 mph1.6 kmh 30.30 in1026.1 mb 0.00 in0.0 mm 0.00 in0.0 mm 0.00 in0.0 mm
02:10 AM 25.8°F-3.4°C 22.7°F-5.2°C 88% 1.0 mph ENE1.6 kmh ENE 3.0 mph4.8 kmh 30.30 in1026.1 mb 0.00 in0.0 mm 0.00 in0.0 mm 0.00 in0.0 mm
02:05 AM 26.0°F-3.3°C 22.9°F-5.1°C 88% 1.0 mph ENE1.6 kmh ENE 3.0 mph4.8 kmh 30.30 in1026.1 mb 0.00 in0.0 mm 0.00 in0.0 mm 0.00 in0.0 mm
02:00 AM 26.2°F-3.2°C 23.1°F-4.9°C 88% Calm Calm 2.0 mph3.2 kmh 30.30 in1026.1 mb 0.00 in0.0 mm 0.00 in0.0 mm 0.00 in0.0 mm
01:55 AM 26.2°F-3.2°C 23.1°F-4.9°C 88% 1.0 mph ENE1.6 kmh ENE 2.0 mph3.2 kmh 30.30 in1026.1 mb 0.00 in0.0 mm 0.00 in0.0 mm 0.00 in0.0 mm
01:50 AM 25.8°F-3.4°C 23.0°F-5.0°C 89% 1.0 mph ENE1.6 kmh ENE 2.0 mph3.2 kmh 30.29 in1025.7 mb 0.00 in0.0 mm 0.00 in0.0 mm 0.00 in0.0 mm
01:45 AM 25.9°F-3.4°C 22.8°F-5.1°C 88% 2.0 mph ENE3.2 kmh ENE 3.0 mph4.8 kmh 30.29 in1025.7 mb 0.00 in0.0 mm 0.00 in0.0 mm 0.00 in0.0 mm
01:40 AM 26.2°F-3.2°C 23.1°F-4.9°C 88% 1.0 mph ENE1.6 kmh ENE 3.0 mph4.8 kmh 30.29 in1025.7 mb 0.00 in0.0 mm 0.00 in0.0 mm 0.00 in0.0 mm
01:35 AM 26.2°F-3.2°C 23.4°F-4.8°C 89% Calm Calm 2.0 mph3.2 kmh 30.29 in1025.7 mb 0.00 in0.0 mm 0.00 in0.0 mm 0.00 in0.0 mm
01:30 AM 26.1°F-3.3°C 23.3°F-4.8°C 89% Calm Calm -- 30.29 in1025.7 mb 0.00 in0.0 mm 0.00 in0.0 mm 0.00 in0.0 mm
01:25 AM 26.1°F-3.3°C 23.3°F-4.8°C 89% Calm Calm -- 30.29 in1025.7 mb 0.00 in0.0 mm 0.00 in0.0 mm 0.00 in0.0 mm
01:20 AM 26.1°F-3.3°C 23.3°F-4.8°C 89% Calm Calm -- 30.29 in1025.7 mb 0.00 in0.0 mm 0.00 in0.0 mm 0.00 in0.0 mm
01:15 AM 26.0°F-3.3°C 23.2°F-4.9°C 89% Calm Calm -- 30.29 in1025.7 mb 0.00 in0.0 mm 0.00 in0.0 mm 0.00 in0.0 mm
01:10 AM 26.0°F-3.3°C 23.2°F-4.9°C 89% Calm Calm 2.0 mph3.2 kmh 30.29 in1025.7 mb 0.00 in0.0 mm 0.00 in0.0 mm 0.00 in0.0 mm
01:05 AM 25.9°F-3.4°C 23.1°F-4.9°C 89% Calm Calm 2.0 mph3.2 kmh 30.28 in1025.4 mb 0.00 in0.0 mm 0.00 in0.0 mm 0.00 in0.0 mm
01:00 AM 25.8°F-3.4°C 23.0°F-5.0°C 89% 1.0 mph ENE1.6 kmh ENE 3.0 mph4.8 kmh 30.28 in1025.4 mb 0.00 in0.0 mm 0.00 in0.0 mm 0.00 in0.0 mm
12:55 AM 25.8°F-3.4°C 23.0°F-5.0°C 89% 1.0 mph ENE1.6 kmh ENE 3.0 mph4.8 kmh 30.28 in1025.4 mb 0.00 in0.0 mm 0.00 in0.0 mm 0.00 in0.0 mm
12:50 AM 25.9°F-3.4°C 23.1°F-4.9°C 89% Calm Calm 2.0 mph3.2 kmh 30.28 in1025.4 mb 0.00 in0.0 mm 0.00 in0.0 mm 0.00 in0.0 mm
12:45 AM 25.9°F-3.4°C 23.1°F-4.9°C 89% 1.0 mph ENE1.6 kmh ENE 3.0 mph4.8 kmh 30.28 in1025.4 mb 0.00 in0.0 mm 0.00 in0.0 mm 0.00 in0.0 mm
12:40 AM 25.9°F-3.4°C 23.1°F-4.9°C 89% 1.0 mph ENE1.6 kmh ENE 3.0 mph4.8 kmh 30.28 in1025.4 mb 0.00 in0.0 mm 0.00 in0.0 mm 0.00 in0.0 mm
12:35 AM 26.0°F-3.3°C 23.2°F-4.9°C 89% Calm Calm 2.0 mph3.2 kmh 30.27 in1025.1 mb 0.00 in0.0 mm 0.00 in0.0 mm 0.00 in0.0 mm
12:30 AM 26.0°F-3.3°C 23.2°F-4.9°C 89% Calm Calm 2.0 mph3.2 kmh 30.27 in1025.1 mb 0.00 in0.0 mm 0.00 in0.0 mm 0.00 in0.0 mm
12:25 AM 26.1°F-3.3°C 23.3°F-4.8°C 89% Calm Calm 2.0 mph3.2 kmh 30.27 in1025.1 mb 0.00 in0.0 mm 0.00 in0.0 mm 0.00 in0.0 mm
12:20 AM 26.1°F-3.3°C 23.3°F-4.8°C 89% 1.0 mph ENE1.6 kmh ENE 3.0 mph4.8 kmh 30.27 in1025.1 mb 0.00 in0.0 mm 0.00 in0.0 mm 0.00 in0.0 mm
12:15 AM 26.2°F-3.2°C 23.4°F-4.8°C 89% 2.0 mph ENE3.2 kmh ENE 3.0 mph4.8 kmh 30.27 in1025.1 mb 0.00 in0.0 mm 0.00 in0.0 mm 0.00 in0.0 mm
12:10 AM 26.3°F-3.2°C 23.5°F-4.7°C 89% 1.0 mph ENE1.6 kmh ENE 2.0 mph3.2 kmh 30.27 in1025.1 mb 0.00 in0.0 mm 0.00 in0.0 mm 0.00 in0.0 mm
12:05 AM 26.3°F-3.2°C 23.5°F-4.7°C 89% 1.0 mph ENE1.6 kmh ENE 3.0 mph4.8 kmh 30.27 in1025.1 mb 0.00 in0.0 mm 0.00 in0.0 mm 0.00 in0.0 mm
12:00 AM 26.3°F-3.2°C 23.5°F-4.7°C 89% 1.0 mph ENE1.6 kmh ENE 3.0 mph4.8 kmh 30.27 in1025.1 mb 0.00 in0.0 mm 0.00 in0.0 mm 0.00 in0.0 mm